Time;durP1;ratioP1;P1;durP2;ratioP2;P2;SDS_P1;SDS_P2;PMS_P1;PMS_P2;Temp;Humidity;BMP_temperature;BMP_pressure;BME280_temperature;BME280_humidity;BME280_pressure;Samples;Min_cycle;Max_cycle;Signal;HPM_P1;HPM_P2
2022/02/22 00:00:45;;;;;;;24.08;4.85;;;7.00;83.60;;;;;;5052552;28;20025;-42
2022/02/22 00:03:10;;;;;;;26.27;4.50;;;7.00;83.60;;;;;;5052843;28;20465;-42
2022/02/22 00:05:38;;;;;;;23.77;4.75;;;7.00;83.60;;;;;;5052525;28;20031;-43
2022/02/22 00:08:04;;;;;;;27.08;4.68;;;7.00;83.40;;;;;;5051156;28;20096;-43
2022/02/22 00:10:29;;;;;;;27.23;5.45;;;7.10;83.40;;;;;;5052420;28;20025;-43
2022/02/22 00:12:55;;;;;;;31.08;4.68;;;7.10;83.30;;;;;;5052335;28;20071;-42
2022/02/22 00:15:21;;;;;;;20.67;4.00;;;7.10;83.20;;;;;;5052675;28;20101;-41
2022/02/22 00:17:46;;;;;;;21.40;3.70;;;7.10;83.20;;;;;;5052772;28;20530;-43
2022/02/22 00:20:12;;;;;;;16.20;3.10;;;7.10;83.20;;;;;;5052233;28;20465;-39
2022/02/22 00:22:38;;;;;;;29.05;4.35;;;7.10;83.30;;;;;;5052554;28;20021;-42
2022/02/22 00:25:05;;;;;;;25.33;4.45;;;7.10;83.30;;;;;;5052505;28;20479;-42
2022/02/22 00:27:31;;;;;;;19.45;3.53;;;7.10;83.20;;;;;;5052254;28;20460;-42
2022/02/22 00:29:57;;;;;;;23.35;4.15;;;7.10;83.20;;;;;;5052240;28;20021;-42
2022/02/22 00:32:22;;;;;;;19.98;4.00;;;7.10;83.10;;;;;;5052047;28;20092;-43
2022/02/22 00:34:49;;;;;;;28.05;4.70;;;7.00;83.20;;;;;;5052468;28;20025;-42
2022/02/22 00:37:14;;;;;;;21.70;4.50;;;7.00;83.40;;;;;;5052109;28;20548;-41
2022/02/22 00:39:40;;;;;;;20.75;4.22;;;6.90;83.40;;;;;;5052177;28;20056;-42
2022/02/22 00:42:06;;;;;;;23.55;4.18;;;7.00;83.70;;;;;;5052136;28;20366;-43
2022/02/22 00:44:31;;;;;;;25.73;4.13;;;6.90;83.60;;;;;;5051845;28;20477;-43
2022/02/22 00:46:57;;;;;;;20.30;4.32;;;6.90;83.50;;;;;;5052030;28;20029;-42
2022/02/22 00:49:23;;;;;;;23.50;4.40;;;6.90;83.50;;;;;;5052468;28;20052;-42
2022/02/22 00:51:48;;;;;;;20.65;3.25;;;6.90;83.50;;;;;;5052163;28;20032;-42
2022/02/22 00:54:14;;;;;;;27.15;5.07;;;6.90;83.50;;;;;;5053497;28;20064;-42
2022/02/22 00:56:40;;;;;;;26.13;5.05;;;6.90;83.50;;;;;;5054355;28;20024;-42
2022/02/22 00:59:05;;;;;;;28.95;4.63;;;6.80;83.60;;;;;;5056070;28;20051;-41
2022/02/22 01:01:31;;;;;;;22.67;4.05;;;6.80;83.70;;;;;;5055665;28;20021;-42
2022/02/22 01:03:56;;;;;;;28.30;4.47;;;6.80;83.90;;;;;;5055543;28;20033;-42
2022/02/22 01:06:22;;;;;;;27.48;4.30;;;6.80;83.90;;;;;;5055460;28;20164;-41
2022/02/22 01:08:47;;;;;;;23.02;4.03;;;6.80;84.00;;;;;;5055413;28;20029;-42
2022/02/22 01:11:13;;;;;;;20.13;3.97;;;6.80;84.10;;;;;;5055197;28;20032;-41
2022/02/22 01:13:38;;;;;;;28.60;4.53;;;6.80;84.00;;;;;;5054085;28;20021;-43
2022/02/22 01:16:04;;;;;;;28.55;4.80;;;6.80;84.20;;;;;;5055238;28;20423;-42
2022/02/22 01:18:30;;;;;;;29.58;4.72;;;6.80;84.20;;;;;;5055135;28;20021;-41
2022/02/22 01:20:56;;;;;;;22.50;4.38;;;6.70;84.20;;;;;;5055419;28;20032;-41
2022/02/22 01:23:21;;;;;;;24.77;4.10;;;6.70;84.30;;;;;;5055421;28;20484;-41
2022/02/22 01:25:47;;;;;;;26.27;4.47;;;6.70;84.30;;;;;;5055374;28;20021;-42
2022/02/22 01:28:12;;;;;;;18.70;3.35;;;6.70;84.40;;;;;;5054966;28;20481;-41
2022/02/22 01:30:38;;;;;;;18.30;3.38;;;6.70;84.30;;;;;;5053808;28;20033;-42
2022/02/22 01:33:04;;;;;;;20.67;3.97;;;6.70;84.30;;;;;;5054768;28;20099;-42
2022/02/22 01:35:29;;;;;;;19.95;3.55;;;6.70;84.40;;;;;;5054851;28;20021;-41
2022/02/22 01:37:55;;;;;;;24.45;3.70;;;6.70;84.40;;;;;;5053611;28;20075;-42
2022/02/22 01:40:21;;;;;;;22.65;3.97;;;6.70;84.50;;;;;;5053419;28;20053;-41
2022/02/22 01:42:46;;;;;;;25.67;4.38;;;6.70;84.50;;;;;;5054766;28;20039;-42
2022/02/22 01:45:12;;;;;;;21.88;3.50;;;6.60;84.60;;;;;;5054559;28;20044;-41
2022/02/22 01:47:39;;;;;;;24.75;4.55;;;6.60;84.60;;;;;;5054990;28;20136;-42
2022/02/22 01:50:05;;;;;;;25.75;3.97;;;6.60;84.70;;;;;;5054791;28;20427;-41
2022/02/22 01:52:31;;;;;;;27.95;3.90;;;6.50;84.80;;;;;;5054671;28;20020;-41
2022/02/22 01:54:57;;;;;;;25.85;4.55;;;6.40;84.80;;;;;;5054744;28;20481;-43
2022/02/22 01:57:24;;;;;;;21.73;3.65;;;6.40;84.90;;;;;;5054455;28;20113;-42
2022/02/22 01:59:52;;;;;;;18.42;3.90;;;6.40;85.00;;;;;;5054715;28;20096;-42
2022/02/22 02:02:17;;;;;;;21.52;4.10;;;6.30;85.00;;;;;;5054400;28;20020;-42
2022/02/22 02:04:43;;;;;;;22.27;3.75;;;6.30;85.10;;;;;;5054272;28;20029;-41
2022/02/22 02:07:09;;;;;;;16.63;3.45;;;6.20;85.20;;;;;;5053027;28;20055;-42
2022/02/22 02:09:34;;;;;;;18.88;3.50;;;6.20;85.40;;;;;;5054184;28;20385;-41
2022/02/22 02:12:00;;;;;;;19.77;4.00;;;6.20;85.40;;;;;;5052660;28;20412;-43
2022/02/22 02:14:27;;;;;;;16.73;3.35;;;6.20;85.40;;;;;;5053771;28;20063;-41
2022/02/22 02:16:55;;;;;;;26.27;4.45;;;6.10;85.50;;;;;;5053779;28;20029;-41
2022/02/22 02:19:21;;;;;;;20.92;3.85;;;6.10;85.50;;;;;;5053803;28;20029;-42
2022/02/22 02:21:48;;;;;;;20.40;4.18;;;6.10;85.70;;;;;;5053739;28;20024;-42
2022/02/22 02:24:15;;;;;;;21.05;4.35;;;6.10;85.70;;;;;;5053682;28;20025;-40
2022/02/22 02:26:42;;;;;;;18.52;3.55;;;6.00;85.80;;;;;;5053620;28;20021;-42
2022/02/22 02:29:12;;;;;;;16.65;3.40;;;6.00;85.80;;;;;;5052334;28;20033;-41
2022/02/22 02:31:39;;;;;;;15.18;3.03;;;6.00;85.90;;;;;;5053563;28;20063;-41
2022/02/22 02:34:06;;;;;;;25.90;4.43;;;6.00;86.00;;;;;;5053781;28;20036;-41
2022/02/22 02:36:33;;;;;;;19.75;3.60;;;6.00;86.00;;;;;;5053423;28;20024;-41
2022/02/22 02:38:59;;;;;;;16.95;2.92;;;6.00;86.10;;;;;;5053547;28;20018;-41
2022/02/22 02:41:25;;;;;;;14.23;2.67;;;5.90;86.20;;;;;;5053387;28;20021;-41
2022/02/22 02:43:51;;;;;;;14.02;3.08;;;5.90;86.30;;;;;;5053420;28;20389;-42
2022/02/22 02:46:17;;;;;;;15.35;3.00;;;5.90;86.40;;;;;;5053144;28;20051;-40
2022/02/22 02:48:42;;;;;;;22.45;3.33;;;5.90;86.50;;;;;;5053557;28;20021;-41
2022/02/22 02:51:08;;;;;;;14.65;3.10;;;5.90;86.50;;;;;;5053217;28;20067;-41
2022/02/22 02:53:34;;;;;;;17.45;3.60;;;5.90;86.60;;;;;;5053104;28;20029;-42
2022/02/22 02:55:59;;;;;;;18.80;3.13;;;5.80;86.50;;;;;;5053101;28;20033;-41
2022/02/22 02:58:25;;;;;;;18.52;3.75;;;5.80;86.60;;;;;;5053220;28;20028;-41
2022/02/22 03:00:50;;;;;;;19.13;3.42;;;5.80;86.70;;;;;;5053220;28;20106;-41
2022/02/22 03:03:16;;;;;;;20.42;3.30;;;5.80;86.80;;;;;;5053358;28;20108;-41
2022/02/22 03:05:42;;;;;;;30.80;4.65;;;5.80;86.80;;;;;;5053303;28;20484;-42
2022/02/22 03:08:07;;;;;;;15.90;3.05;;;5.80;86.90;;;;;;5053013;28;20037;-41
2022/02/22 03:10:33;;;;;;;21.83;3.38;;;5.80;86.90;;;;;;5053005;28;20035;-40
2022/02/22 03:12:58;;;;;;;18.15;4.30;;;5.70;86.90;;;;;;5051849;28;20025;-41
2022/02/22 03:15:24;;;;;;;16.58;3.10;;;5.70;87.00;;;;;;5052695;28;20029;-42
2022/02/22 03:17:50;;;;;;;15.63;2.83;;;5.70;87.10;;;;;;5052967;28;20033;-41
2022/02/22 03:20:15;;;;;;;16.40;3.13;;;5.70;87.10;;;;;;5051450;28;20033;-40
2022/02/22 03:22:45;;;;;;;18.50;3.83;;;5.70;87.20;;;;;;5052804;28;20061;-41
2022/02/22 03:25:11;;;;;;;13.45;3.28;;;5.70;87.20;;;;;;5053141;28;20040;-42
2022/02/22 03:27:37;;;;;;;19.98;3.25;;;5.70;87.30;;;;;;5052962;28;20052;-41
2022/02/22 03:30:04;;;;;;;22.67;3.90;;;5.70;87.30;;;;;;5052797;28;20485;-43
2022/02/22 03:32:29;;;;;;;20.23;3.78;;;5.70;87.30;;;;;;5052448;28;20029;-41
2022/02/22 03:34:55;;;;;;;17.52;3.50;;;5.60;87.30;;;;;;5052702;28;20052;-41
2022/02/22 03:37:20;;;;;;;20.15;3.15;;;5.60;87.30;;;;;;5052631;28;20032;-41
2022/02/22 03:39:46;;;;;;;16.73;3.47;;;5.60;87.40;;;;;;5052537;28;20492;-42
2022/02/22 03:42:11;;;;;;;20.38;4.10;;;5.60;87.50;;;;;;5052558;28;20465;-41
2022/02/22 03:44:37;;;;;;;22.45;4.10;;;5.60;87.50;;;;;;5052346;28;20401;-41
2022/02/22 03:47:03;;;;;;;19.92;3.85;;;5.60;87.50;;;;;;5052488;28;20133;-41
2022/02/22 03:49:29;;;;;;;19.73;4.30;;;5.60;87.60;;;;;;5052403;28;20029;-41
2022/02/22 03:51:54;;;;;;;24.63;4.47;;;5.60;87.50;;;;;;5051264;28;20021;-42
2022/02/22 03:54:20;;;;;;;25.63;3.88;;;5.70;87.60;;;;;;5052119;28;20123;-41
2022/02/22 03:56:45;;;;;;;25.55;4.00;;;5.70;87.60;;;;;;5052242;28;20024;-42
2022/02/22 03:59:12;;;;;;;23.30;3.60;;;5.70;87.60;;;;;;5052312;28;20477;-41
2022/02/22 04:01:37;;;;;;;19.52;3.67;;;5.70;87.60;;;;;;5052326;28;20052;-41
2022/02/22 04:04:03;;;;;;;14.88;3.03;;;5.70;87.60;;;;;;5052257;28;20036;-41
2022/02/22 04:06:29;;;;;;;15.43;3.35;;;5.70;87.60;;;;;;5052175;28;20064;-41
2022/02/22 04:08:54;;;;;;;20.65;3.08;;;5.70;87.60;;;;;;5052541;28;20120;-41
2022/02/22 04:11:20;;;;;;;20.63;3.35;;;5.70;87.60;;;;;;5052517;28;20039;-41
2022/02/22 04:13:46;;;;;;;16.75;2.75;;;5.70;87.60;;;;;;5052224;28;20025;-41
2022/02/22 04:16:12;;;;;;;15.90;2.72;;;5.70;87.60;;;;;;5050771;28;20025;-43
2022/02/22 04:18:37;;;;;;;17.25;3.03;;;5.80;87.60;;;;;;5052094;28;20388;-42
2022/02/22 04:21:03;;;;;;;18.90;3.53;;;5.80;87.60;;;;;;5052352;28;20032;-41
2022/02/22 04:23:28;;;;;;;20.70;3.30;;;5.80;87.60;;;;;;5050755;28;20063;-41
2022/02/22 04:25:54;;;;;;;20.13;3.00;;;5.80;87.60;;;;;;5050768;28;20147;-42
2022/02/22 04:28:19;;;;;;;13.63;2.83;;;5.80;87.70;;;;;;5053706;28;20021;-43
2022/02/22 04:30:45;;;;;;;16.10;3.10;;;5.80;87.70;;;;;;5055818;28;20035;-41
2022/02/22 04:33:11;;;;;;;12.60;3.08;;;5.80;87.70;;;;;;5055918;28;20049;-47
2022/02/22 04:35:36;;;;;;;13.98;3.30;;;5.80;87.80;;;;;;5055813;28;20025;-43
2022/02/22 04:38:02;;;;;;;17.17;3.30;;;5.80;87.80;;;;;;5055949;28;20051;-41
2022/02/22 04:40:29;;;;;;;13.82;3.10;;;5.80;87.80;;;;;;5055671;28;20100;-42
2022/02/22 04:42:55;;;;;;;14.05;3.35;;;5.80;87.80;;;;;;5055647;28;20082;-42
2022/02/22 04:45:21;;;;;;;14.45;3.70;;;5.80;87.90;;;;;;5055613;28;20457;-42
2022/02/22 04:47:47;;;;;;;21.63;3.63;;;5.70;87.90;;;;;;5055607;28;20060;-43
2022/02/22 04:50:13;;;;;;;20.65;3.20;;;5.80;88.00;;;;;;5055489;28;20059;-41
2022/02/22 04:52:39;;;;;;;15.73;3.50;;;5.70;87.90;;;;;;5055757;28;20032;-42
2022/02/22 04:55:06;;;;;;;15.00;2.75;;;5.70;88.00;;;;;;5055404;28;20029;-40
2022/02/22 04:57:34;;;;;;;10.90;2.88;;;5.70;88.20;;;;;;5055416;28;20050;-41
2022/02/22 04:59:59;;;;;;;21.88;3.47;;;5.60;88.20;;;;;;5055330;28;20132;-40
2022/02/22 05:02:25;;;;;;;12.32;2.88;;;5.60;88.20;;;;;;5053873;28;20061;-41
2022/02/22 05:04:50;;;;;;;13.43;2.70;;;5.60;88.20;;;;;;5055212;28;20512;-41
2022/02/22 05:07:16;;;;;;;17.92;3.20;;;5.60;88.30;;;;;;5055039;28;20468;-42
2022/02/22 05:09:41;;;;;;;11.38;2.47;;;5.60;88.40;;;;;;5055229;28;20021;-42
2022/02/22 05:12:09;;;;;;;12.57;2.60;;;5.50;88.40;;;;;;5055066;28;20027;-42
2022/02/22 05:14:37;;;;;;;16.75;2.95;;;5.60;88.50;;;;;;5037287;28;20427;-41
2022/02/22 05:17:03;;;;;;;21.33;3.50;;;5.50;88.50;;;;;;5054964;28;20063;-44
2022/02/22 05:19:29;;;;;;;16.63;3.25;;;5.50;88.50;;;;;;5054792;28;20020;-41
2022/02/22 05:21:54;;;;;;;17.00;2.90;;;5.50;88.50;;;;;;5055020;28;20027;-41
2022/02/22 05:24:20;;;;;;;24.60;3.70;;;5.50;88.50;;;;;;5054917;28;20064;-40
2022/02/22 05:26:45;;;;;;;14.45;2.95;;;5.50;88.60;;;;;;5053600;28;20090;-42
2022/02/22 05:29:11;;;;;;;17.42;3.50;;;5.40;88.60;;;;;;5054765;28;20059;-43
2022/02/22 05:31:37;;;;;;;22.48;3.28;;;5.40;88.60;;;;;;5054817;28;20036;-41
2022/02/22 05:34:02;;;;;;;19.90;3.40;;;5.40;88.70;;;;;;5054941;28;20036;-42
2022/02/22 05:36:28;;;;;;;20.88;3.45;;;5.40;88.80;;;;;;5054791;28;20105;-42
2022/02/22 05:38:54;;;;;;;14.10;3.20;;;5.30;88.80;;;;;;5054538;28;20017;-42
2022/02/22 05:41:19;;;;;;;17.95;2.90;;;5.40;89.00;;;;;;5054611;28;20036;-41
2022/02/22 05:43:46;;;;;;;21.63;3.33;;;5.30;89.00;;;;;;5054873;28;20028;-41
2022/02/22 05:46:12;;;;;;;15.82;2.60;;;5.30;89.10;;;;;;5054431;28;20075;-41
2022/02/22 05:48:38;;;;;;;15.20;3.20;;;5.40;89.10;;;;;;5054792;28;20033;-42
2022/02/22 05:51:03;;;;;;;16.55;3.05;;;5.40;89.10;;;;;;5054514;28;20130;-42
2022/02/22 05:53:29;;;;;;;15.68;3.70;;;5.40;89.20;;;;;;5054317;28;20037;-41
2022/02/22 05:55:55;;;;;;;11.75;2.92;;;5.40;89.20;;;;;;5054445;28;20051;-41
2022/02/22 05:58:20;;;;;;;14.48;3.05;;;5.40;89.20;;;;;;5054363;28;20033;-40
2022/02/22 06:00:46;;;;;;;13.68;3.17;;;5.30;89.20;;;;;;5054483;28;20112;-42
2022/02/22 06:03:11;;;;;;;17.77;3.55;;;5.40;89.20;;;;;;5054474;28;20481;-41
2022/02/22 06:05:37;;;;;;;16.48;3.00;;;5.40;89.20;;;;;;5054253;28;20417;-41
2022/02/22 06:08:03;;;;;;;10.18;3.13;;;5.40;89.20;;;;;;5054162;28;20029;-41
2022/02/22 06:10:28;;;;;;;23.83;3.97;;;5.40;89.20;;;;;;5054176;28;20079;-42
2022/02/22 06:12:54;;;;;;;17.95;3.50;;;5.40;89.10;;;;;;5054044;28;20032;-42
2022/02/22 06:15:20;;;;;;;14.65;2.90;;;5.40;89.10;;;;;;5053930;28;20025;-42
2022/02/22 06:17:46;;;;;;;14.98;3.20;;;5.50;89.20;;;;;;5054004;28;20031;-42
2022/02/22 06:20:13;;;;;;;20.58;3.67;;;5.50;89.20;;;;;;5053799;28;20111;-42
2022/02/22 06:22:39;;;;;;;15.13;3.33;;;5.50;89.20;;;;;;5053972;28;20484;-42
2022/02/22 06:25:07;;;;;;;19.77;3.38;;;5.50;89.20;;;;;;5053845;28;20024;-41
2022/02/22 06:27:43;;;;;;;27.33;3.35;;;5.50;89.20;;;;;;5053692;28;20017;-44
2022/02/22 06:30:09;;;;;;;15.93;3.05;;;5.50;89.20;;;;;;5053684;28;20017;-43
2022/02/22 06:32:35;;;;;;;13.50;3.30;;;5.40;89.20;;;;;;5053445;28;20024;-42
2022/02/22 06:35:00;;;;;;;18.75;2.90;;;5.50;89.20;;;;;;5053800;28;20027;-43
2022/02/22 06:37:26;;;;;;;15.60;2.88;;;5.40;89.20;;;;;;5052402;28;20013;-43
2022/02/22 06:39:52;;;;;;;14.00;2.80;;;5.50;89.30;;;;;;5053568;28;20028;-42
2022/02/22 06:42:17;;;;;;;11.82;2.50;;;5.50;89.30;;;;;;5053520;28;20025;-42
2022/02/22 06:44:43;;;;;;;17.60;2.42;;;5.50;89.40;;;;;;5053392;28;20088;-42
2022/02/22 06:47:08;;;;;;;18.60;2.97;;;5.60;90.00;;;;;;5053450;28;20500;-43
2022/02/22 06:49:34;;;;;;;14.32;3.00;;;5.60;89.20;;;;;;5052153;28;20057;-43
2022/02/22 06:51:59;;;;;;;10.38;2.47;;;5.70;89.10;;;;;;5052824;28;20025;-44
2022/02/22 06:54:25;;;;;;;11.90;2.60;;;5.70;89.00;;;;;;5053191;28;20037;-41
2022/02/22 06:56:51;;;;;;;9.90;2.60;;;5.70;89.00;;;;;;5053133;28;20025;-41
2022/02/22 06:59:16;;;;;;;10.38;2.53;;;5.70;89.00;;;;;;5053055;28;20071;-42
2022/02/22 07:01:42;;;;;;;14.25;3.03;;;5.70;89.00;;;;;;5053077;28;20021;-41
2022/02/22 07:04:07;;;;;;;19.73;3.38;;;5.70;89.00;;;;;;5053047;28;20127;-42
2022/02/22 07:06:33;;;;;;;14.30;2.80;;;5.70;89.00;;;;;;5053002;28;20048;-42
2022/02/22 07:08:59;;;;;;;10.82;2.90;;;5.70;89.10;;;;;;5052995;28;20063;-41
2022/02/22 07:11:24;;;;;;;12.55;2.70;;;5.80;89.10;;;;;;5053042;28;20025;-42
2022/02/22 07:13:50;;;;;;;10.98;2.70;;;5.80;89.00;;;;;;5053099;28;20469;-42
2022/02/22 07:16:16;;;;;;;8.75;2.28;;;5.90;89.00;;;;;;5052977;28;20021;-42
2022/02/22 07:18:43;;;;;;;11.88;2.70;;;5.90;88.90;;;;;;5051787;28;20013;-43
2022/02/22 07:21:09;;;;;;;9.85;2.58;;;6.00;88.80;;;;;;5052816;28;20036;-43
2022/02/22 07:23:34;;;;;;;11.38;2.80;;;6.00;88.70;;;;;;5052594;28;20029;-43
2022/02/22 07:26:00;;;;;;;9.77;2.80;;;6.10;88.60;;;;;;5052811;28;20029;-43
2022/02/22 07:28:26;;;;;;;13.23;3.05;;;6.20;88.50;;;;;;5052612;28;20071;-43
2022/02/22 07:30:51;;;;;;;14.32;2.78;;;6.20;88.30;;;;;;5052610;28;20064;-43
2022/02/22 07:33:17;;;;;;;16.55;3.13;;;6.10;88.20;;;;;;5052567;28;20456;-42
2022/02/22 07:35:42;;;;;;;17.88;3.05;;;6.10;88.30;;;;;;5052903;28;20071;-42
2022/02/22 07:38:08;;;;;;;16.20;3.25;;;6.10;88.30;;;;;;5052474;28;20035;-42
2022/02/22 07:40:34;;;;;;;10.65;2.50;;;6.10;88.30;;;;;;5052611;28;20126;-41
2022/02/22 07:43:00;;;;;;;9.43;2.63;;;6.10;88.40;;;;;;5052668;28;20029;-41
2022/02/22 07:45:25;;;;;;;17.10;2.97;;;6.10;88.40;;;;;;5052261;28;20037;-42
2022/02/22 07:47:51;;;;;;;14.35;2.70;;;6.10;88.30;;;;;;5052696;28;20134;-41
2022/02/22 07:50:17;;;;;;;13.65;3.08;;;6.10;88.30;;;;;;5052512;28;20025;-42
2022/02/22 07:52:42;;;;;;;17.55;3.58;;;6.10;88.30;;;;;;5050977;28;20021;-42
2022/02/22 07:55:09;;;;;;;14.25;2.63;;;6.10;88.20;;;;;;5051161;28;20101;-41
2022/02/22 07:57:35;;;;;;;11.73;2.53;;;6.00;88.10;;;;;;5052373;28;20392;-43
2022/02/22 08:00:00;;;;;;;10.57;2.55;;;6.10;88.30;;;;;;5051071;28;20063;-41
2022/02/22 08:02:26;;;;;;;12.25;2.53;;;6.10;88.30;;;;;;5054245;28;20053;-44
2022/02/22 08:04:52;;;;;;;11.30;2.38;;;6.20;88.30;;;;;;5056496;28;20067;-42
2022/02/22 08:07:20;;;;;;;10.43;2.70;;;6.30;88.30;;;;;;5056467;28;20544;-41
2022/02/22 08:09:46;;;;;;;17.63;3.25;;;6.40;88.20;;;;;;5056344;28;20029;-43
2022/02/22 08:12:12;;;;;;;14.52;2.85;;;6.50;88.10;;;;;;5056320;28;20484;-42
2022/02/22 08:14:38;;;;;;;11.23;2.45;;;6.60;87.80;;;;;;5056223;28;20075;-43
2022/02/22 08:17:03;;;;;;;15.45;3.05;;;6.70;87.60;;;;;;5056170;28;20021;-42
2022/02/22 08:19:30;;;;;;;10.68;2.90;;;6.70;87.50;;;;;;5056359;28;20029;-43
2022/02/22 08:21:56;;;;;;;10.02;2.47;;;6.80;87.50;;;;;;5056345;28;20044;-43
2022/02/22 08:24:23;;;;;;;12.90;2.80;;;6.90;87.40;;;;;;5056234;28;20068;-43
2022/02/22 08:26:49;;;;;;;12.10;2.30;;;7.00;87.30;;;;;;5054915;28;20028;-44
2022/02/22 08:29:15;;;;;;;13.32;3.15;;;7.00;87.20;;;;;;5056101;28;20029;-44
2022/02/22 08:31:41;;;;;;;14.95;3.22;;;7.10;87.10;;;;;;5054815;28;20082;-41
2022/02/22 08:34:06;;;;;;;14.88;2.50;;;7.10;87.10;;;;;;5056138;28;20029;-43
2022/02/22 08:36:32;;;;;;;8.65;2.53;;;7.20;87.10;;;;;;5056153;28;20175;-44
2022/02/22 08:39:00;;;;;;;11.70;2.70;;;7.30;87.00;;;;;;5056050;28;20536;-44
2022/02/22 08:41:26;;;;;;;11.35;2.63;;;7.40;86.90;;;;;;5054447;28;20028;-42
2022/02/22 08:43:52;;;;;;;12.60;2.72;;;7.40;86.80;;;;;;5055921;28;20025;-44
2022/02/22 08:46:19;;;;;;;14.63;3.08;;;7.50;86.70;;;;;;5055635;28;20096;-43
2022/02/22 08:48:45;;;;;;;9.68;2.88;;;7.50;86.60;;;;;;5055703;28;20025;-44
2022/02/22 08:51:11;;;;;;;14.85;3.20;;;7.60;86.60;;;;;;5055615;28;20031;-43
2022/02/22 08:53:38;;;;;;;13.43;3.20;;;7.60;86.50;;;;;;5055757;28;20067;-42
2022/02/22 08:56:05;;;;;;;15.10;3.85;;;7.70;86.40;;;;;;5055926;28;20035;-44
2022/02/22 08:58:30;;;;;;;12.90;3.33;;;7.70;86.20;;;;;;5055646;28;20503;-44
2022/02/22 09:00:56;;;;;;;13.65;3.22;;;7.70;86.10;;;;;;5055605;28;20029;-44
2022/02/22 09:03:22;;;;;;;13.27;3.40;;;7.70;86.20;;;;;;5055680;28;20090;-43
2022/02/22 09:05:48;;;;;;;13.13;3.30;;;7.80;86.20;;;;;;5055729;28;20467;-42
2022/02/22 09:08:15;;;;;;;14.73;4.13;;;7.80;86.10;;;;;;5055281;28;20031;-41
2022/02/22 09:10:41;;;;;;;14.73;3.50;;;7.90;86.10;;;;;;5055598;28;20029;-43
2022/02/22 09:13:07;;;;;;;17.35;3.83;;;7.90;85.80;;;;;;5054998;28;20029;-43
2022/02/22 09:15:33;;;;;;;19.45;3.97;;;8.00;85.90;;;;;;5053784;28;20033;-43
2022/02/22 09:17:59;;;;;;;14.18;4.50;;;8.00;85.90;;;;;;5055284;28;20503;-43
2022/02/22 09:20:25;;;;;;;17.10;4.05;;;8.10;85.80;;;;;;5053849;28;20024;-43
2022/02/22 09:22:51;;;;;;;17.55;4.10;;;8.20;85.70;;;;;;5055184;28;20485;-43
2022/02/22 09:25:18;;;;;;;17.52;4.78;;;8.30;85.50;;;;;;5053710;28;20017;-42
2022/02/22 09:27:44;;;;;;;22.67;4.45;;;8.30;85.20;;;;;;5054949;28;20100;-42
2022/02/22 09:30:13;;;;;;;19.13;4.50;;;8.40;85.90;;;;;;5055191;28;20017;-42
2022/02/22 09:32:39;;;;;;;21.40;4.30;;;8.40;85.20;;;;;;5054782;28;20036;-43
2022/02/22 09:35:05;;;;;;;17.73;3.60;;;8.50;85.10;;;;;;5054943;28;20025;-44
2022/02/22 09:37:30;;;;;;;11.35;3.60;;;8.60;85.70;;;;;;5054739;28;20374;-44
2022/02/22 09:39:56;;;;;;;19.40;5.03;;;8.60;85.00;;;;;;5054695;28;20028;-44
2022/02/22 09:42:25;;;;;;;22.20;4.85;;;8.60;84.70;;;;;;5054757;28;20056;-43
2022/02/22 09:44:51;;;;;;;21.33;4.40;;;8.60;84.00;;;;;;5054732;28;20063;-45
2022/02/22 09:47:18;;;;;;;14.55;4.38;;;8.60;84.10;;;;;;5054981;28;20057;-43
2022/02/22 09:49:43;;;;;;;17.15;4.40;;;8.60;84.00;;;;;;5036749;28;20028;-44
2022/02/22 09:52:09;;;;;;;17.50;4.00;;;8.60;84.20;;;;;;5054477;28;20074;-43
2022/02/22 09:54:35;;;;;;;17.02;4.53;;;8.70;84.30;;;;;;5054395;28;20033;-44
2022/02/22 09:57:01;;;;;;;16.27;3.92;;;8.70;84.30;;;;;;5054395;28;20073;-42
2022/02/22 09:59:26;;;;;;;19.50;4.13;;;8.70;84.20;;;;;;5053137;28;20021;-43
2022/02/22 10:01:54;;;;;;;17.58;3.70;;;8.80;84.20;;;;;;5053151;28;20021;-44
2022/02/22 10:04:21;;;;;;;14.85;4.95;;;8.80;84.10;;;;;;5054316;28;20033;-42
2022/02/22 10:06:46;;;;;;;16.35;4.35;;;8.70;83.90;;;;;;5054240;28;20036;-44
2022/02/22 10:09:13;;;;;;;15.63;4.43;;;8.80;84.10;;;;;;5054551;28;20025;-45
2022/02/22 10:11:53;;;;;;;12.57;3.53;;;8.70;83.90;;;;;;5054267;28;20103;-43
2022/02/22 10:14:29;;;;;;;15.82;4.28;;;8.80;84.00;;;;;;5054089;28;20083;-43
2022/02/22 10:16:57;;;;;;;18.38;4.03;;;8.80;84.00;;;;;;5054049;28;20155;-43
2022/02/22 10:19:29;;;;;;;17.60;3.60;;;8.80;83.90;;;;;;5053876;28;20056;-42
2022/02/22 10:21:56;;;;;;;16.50;3.72;;;8.80;83.90;;;;;;5053950;28;20024;-43
2022/02/22 10:24:24;;;;;;;13.50;3.95;;;8.90;84.00;;;;;;5053871;28;20086;-44
2022/02/22 10:27:07;;;;;;;10.70;3.28;;;9.00;83.80;;;;;;5052968;28;20114;-45
2022/02/22 10:29:35;;;;;;;16.88;4.47;;;9.00;83.80;;;;;;5054026;28;20063;-43
2022/02/22 10:32:16;;;;;;;15.20;4.18;;;9.00;83.40;;;;;;5053766;28;20108;-43
2022/02/22 10:34:43;;;;;;;18.00;4.30;;;9.00;83.70;;;;;;5053906;28;20036;-44
2022/02/22 10:37:09;;;;;;;18.17;4.47;;;9.00;83.70;;;;;;5053980;28;20071;-44
2022/02/22 10:39:35;;;;;;;18.88;4.22;;;9.10;83.80;;;;;;5053583;28;20468;-43
2022/02/22 10:42:00;;;;;;;20.52;5.07;;;9.10;83.80;;;;;;5053615;28;20096;-43
2022/02/22 10:44:35;;;;;;;15.68;4.50;;;9.10;83.70;;;;;;5053364;28;20033;-43
2022/02/22 10:47:17;;;;;;;17.13;4.00;;;9.10;83.70;;;;;;5052303;28;20025;-43
2022/02/22 10:49:42;;;;;;;15.35;4.13;;;9.00;83.30;;;;;;5053446;28;20036;-44
2022/02/22 10:52:11;;;;;;;22.40;5.00;;;9.00;82.80;;;;;;5052252;28;20397;-43
2022/02/22 10:54:37;;;;;;;14.43;3.90;;;9.00;83.10;;;;;;5053588;28;20047;-42
2022/02/22 10:57:03;;;;;;;14.38;3.90;;;9.00;83.20;;;;;;5053741;28;20092;-43
2022/02/22 10:59:31;;;;;;;12.40;3.50;;;9.10;83.40;;;;;;5053507;28;20025;-43
2022/02/22 11:01:58;;;;;;;16.67;3.97;;;9.10;83.60;;;;;;5053351;28;20473;-43
2022/02/22 11:04:24;;;;;;;17.27;3.67;;;9.20;83.20;;;;;;5053498;28;20112;-43
2022/02/22 11:06:49;;;;;;;18.63;4.03;;;9.20;83.20;;;;;;5053270;28;20052;-44
2022/02/22 11:09:20;;;;;;;17.17;4.15;;;9.20;83.20;;;;;;5053384;28;20032;-42
2022/02/22 11:11:50;;;;;;;14.00;3.53;;;9.20;83.20;;;;;;5053011;28;20029;-44
2022/02/22 11:14:27;;;;;;;24.60;3.92;;;9.30;83.30;;;;;;5052700;28;20090;-42
2022/02/22 11:16:55;;;;;;;18.98;4.05;;;9.30;83.00;;;;;;5052997;28;20044;-44
2022/02/22 11:19:25;;;;;;;17.40;3.95;;;9.30;83.00;;;;;;5052847;28;20025;-42
2022/02/22 11:21:53;;;;;;;18.15;4.90;;;9.30;83.00;;;;;;5052872;28;20029;-42
2022/02/22 11:24:21;;;;;;;23.10;4.47;;;9.40;82.80;;;;;;5052845;28;20029;-44
2022/02/22 11:26:59;;;;;;;18.52;4.00;;;9.30;82.80;;;;;;5053006;28;20025;-43
2022/02/22 11:29:30;;;;;;;21.60;4.50;;;9.30;82.80;;;;;;5052947;28;20424;-43
2022/02/22 11:32:04;;;;;;;19.25;4.32;;;9.30;82.70;;;;;;5051339;28;20527;-43
2022/02/22 11:34:34;;;;;;;16.73;3.88;;;9.30;82.80;;;;;;5052883;28;20021;-43
2022/02/22 11:37:03;;;;;;;19.00;4.68;;;9.20;82.80;;;;;;5052408;28;20082;-43
2022/02/22 11:39:30;;;;;;;20.92;4.45;;;9.20;82.90;;;;;;5052697;28;20397;-45
2022/02/22 11:41:57;;;;;;;17.02;4.57;;;9.20;82.90;;;;;;5052785;28;20016;-44
2022/02/22 11:44:24;;;;;;;16.98;3.80;;;9.20;83.10;;;;;;5052577;28;20401;-43
2022/02/22 11:46:56;;;;;;;20.15;4.95;;;9.10;83.30;;;;;;5052796;28;20036;-44
2022/02/22 11:49:32;;;;;;;19.15;4.90;;;9.00;83.50;;;;;;5052540;28;20028;-45
2022/02/22 11:52:08;;;;;;;20.33;4.32;;;9.00;83.80;;;;;;5051241;28;20029;-45
2022/02/22 11:54:34;;;;;;;20.63;4.82;;;8.90;84.10;;;;;;5052623;28;20032;-44
2022/02/22 11:57:06;;;;;;;16.17;4.60;;;8.90;84.50;;;;;;5050951;28;20025;-43
2022/02/22 11:59:48;;;;;;;22.45;4.57;;;8.90;84.80;;;;;;5052616;28;20362;-43
2022/02/22 12:02:26;;;;;;;19.73;5.43;;;8.80;85.00;;;;;;5052264;28;20021;-43
2022/02/22 12:04:51;;;;;;;16.35;4.70;;;8.80;85.20;;;;;;5052730;28;20028;-43
2022/02/22 12:07:37;;;;;;;24.05;4.70;;;8.80;85.30;;;;;;5052462;28;20463;-43
2022/02/22 12:10:07;;;;;;;17.10;4.85;;;8.80;85.50;;;;;;5052386;28;20396;-44
2022/02/22 12:12:33;;;;;;;20.45;4.13;;;8.80;85.50;;;;;;5052375;28;20024;-44
2022/02/22 12:14:59;;;;;;;18.40;4.88;;;8.80;85.60;;;;;;5052122;28;20029;-44
2022/02/22 12:17:25;;;;;;;20.92;4.40;;;8.80;85.70;;;;;;5052253;28;20021;-44
2022/02/22 12:19:54;;;;;;;20.77;4.85;;;8.80;85.90;;;;;;5052626;28;20025;-44
2022/02/22 12:22:24;;;;;;;18.42;5.30;;;8.80;86.00;;;;;;5052320;28;20049;-49
2022/02/22 12:25:00;;;;;;;20.80;4.72;;;8.90;86.10;;;;;;5051074;28;20477;-44
2022/02/22 12:27:29;;;;;;;19.00;5.68;;;8.90;86.10;;;;;;5052283;28;20025;-44
2022/02/22 12:29:56;;;;;;;17.63;4.28;;;9.00;86.20;;;;;;5052458;28;20024;-43
2022/02/22 12:32:36;;;;;;;22.45;4.93;;;9.10;86.20;;;;;;5051997;28;20150;-43
2022/02/22 12:35:09;;;;;;;16.48;4.32;;;9.10;86.20;;;;;;5050763;28;20098;-45
2022/02/22 12:37:44;;;;;;;22.92;6.18;;;9.10;86.20;;;;;;5052343;28;20025;-43
2022/02/22 12:40:11;;;;;;;17.98;4.88;;;9.10;86.20;;;;;;5052197;28;20025;-43
2022/02/22 12:42:37;;;;;;;18.40;5.25;;;9.20;86.30;;;;;;5052274;28;20021;-45
2022/02/22 12:45:16;;;;;;;19.85;5.60;;;9.20;86.50;;;;;;5051943;28;20047;-44